Time;durP1;ratioP1;P1;durP2;ratioP2;P2;SDS_P1;SDS_P2;PMS_P1;PMS_P2;Temp;Humidity;BMP_temperature;BMP_pressure;BME280_temperature;BME280_humidity;BME280_pressure;Samples;Min_cycle;Max_cycle;Signal;HPM_P1;HPM_P2
2023/05/10 00:05:44;;;;;;;0.70;0.65;;;;;;;19.89;67.17;100400.59;20905490;28;20456;-65
2023/05/10 00:15:46;;;;;;;0.90;0.90;;;;;;;19.88;66.93;100390.78;20888781;28;20057;-64
2023/05/10 00:25:47;;;;;;;0.52;0.52;;;;;;;19.86;66.99;100397.19;20904051;28;20053;-65
2023/05/10 00:35:49;;;;;;;0.70;0.70;;;;;;;19.88;67.03;100398.88;20901667;28;20053;-64
2023/05/10 00:45:50;;;;;;;0.63;0.63;;;;;;;19.86;66.82;100391.78;20901764;28;20052;-64
2023/05/10 00:55:52;;;;;;;0.60;0.60;;;;;;;19.85;66.82;100400.06;20902340;28;20501;-65
2023/05/10 01:05:55;;;;;;;0.50;0.50;;;;;;;19.85;66.73;100390.09;20901200;28;20405;-64
2023/05/10 01:15:56;;;;;;;0.63;0.60;;;;;;;19.84;66.64;100391.09;20887589;28;20053;-65
2023/05/10 01:26:25;;;;;;;1.10;0.63;;;;;;;19.83;66.85;100393.97;20898453;28;20505;-64
2023/05/10 01:36:39;;;;;;;0.68;0.57;;;;;;;19.81;66.58;100388.72;20900014;28;20057;-65
2023/05/10 01:46:41;;;;;;;1.30;0.70;;;;;;;19.82;66.46;100389.59;20897939;28;20053;-64
2023/05/10 01:56:43;;;;;;;0.60;0.60;;;;;;;19.77;66.49;100381.94;20897626;28;20096;-65
2023/05/10 02:06:46;;;;;;;0.60;0.60;;;;;;;19.78;66.43;100385.50;20881256;28;20643;-64
2023/05/10 02:16:49;;;;;;;0.77;0.70;;;;;;;19.73;66.51;100383.28;20883561;28;20119;-65
2023/05/10 02:26:53;;;;;;;0.47;0.47;;;;;;;19.78;66.52;100404.44;20899785;28;20052;-64
2023/05/10 02:36:55;;;;;;;;;;;;;;;19.78;66.40;100393.63;20879546;28;20045;-64
2023/05/10 02:46:58;;;;;;;0.50;0.50;;;;;;;19.75;66.43;100389.38;20910736;28;19925;-65
2023/05/10 02:57:01;;;;;;;0.50;0.50;;;;;;;19.70;66.21;100386.31;20910986;28;20048;-65
2023/05/10 03:07:02;;;;;;;0.45;0.45;;;;;;;19.73;66.08;100386.00;20890390;28;20041;-64
2023/05/10 03:17:16;;;;;;;0.52;0.52;;;;;;;19.72;66.30;100395.09;20902041;28;20110;-65
2023/05/10 03:27:18;;;;;;;0.65;0.40;;;;;;;19.71;66.18;100396.97;20891255;28;20075;-65
2023/05/10 03:37:20;;;;;;;0.55;0.55;;;;;;;19.71;66.01;100398.81;20906527;28;20574;-64
2023/05/10 03:47:22;;;;;;;0.45;0.45;;;;;;;19.70;65.99;100405.22;20906334;28;20045;-64
2023/05/10 03:57:23;;;;;;;0.70;0.50;;;;;;;19.67;66.20;100406.41;20905253;28;20106;-64
2023/05/10 04:07:25;;;;;;;0.57;0.57;;;;;;;19.68;66.19;100416.19;20875521;28;20045;-65
2023/05/10 04:17:27;;;;;;;0.35;0.35;;;;;;;19.69;65.76;100427.81;20905284;28;20582;-65
2023/05/10 04:27:29;;;;;;;0.35;0.35;;;;;;;19.69;65.80;100427.81;20904288;28;20128;-64
2023/05/10 04:37:30;;;;;;;0.50;0.50;;;;;;;19.67;65.86;100422.59;20902244;28;20497;-64
2023/05/10 04:47:32;;;;;;;0.35;0.35;;;;;;;19.68;65.69;100442.34;20902856;28;20049;-64
2023/05/10 04:57:34;;;;;;;0.50;0.45;;;;;;;19.67;65.50;100446.03;20901004;28;20517;-64
2023/05/10 05:07:35;;;;;;;0.20;0.20;;;;;;;19.67;65.65;100441.50;20885195;28;20111;-65
2023/05/10 05:17:37;;;;;;;0.43;0.43;;;;;;;19.67;65.39;100451.44;20901369;28;20479;-65
2023/05/10 05:27:38;;;;;;;0.38;0.38;;;;;;;19.67;65.53;100451.44;20899535;28;20087;-65
2023/05/10 05:37:40;;;;;;;0.30;0.30;;;;;;;19.66;65.59;100468.66;20899995;28;20409;-65
2023/05/10 05:47:42;;;;;;;0.35;0.35;;;;;;;19.66;65.51;100469.50;20899169;28;20048;-64
2023/05/10 05:57:43;;;;;;;0.30;0.30;;;;;;;19.66;65.19;100477.59;20899535;28;20052;-64
2023/05/10 06:07:45;;;;;;;0.40;0.40;;;;;;;19.65;65.58;100486.69;20900216;28;20045;-64
2023/05/10 06:17:49;;;;;;;0.30;0.30;;;;;;;19.64;65.52;100493.09;20914454;28;20067;-64
2023/05/10 06:27:50;;;;;;;0.32;0.20;;;;;;;19.63;65.61;100504.91;20914150;28;20052;-64
2023/05/10 06:37:54;;;;;;;0.45;0.30;;;;;;;19.62;65.40;100507.78;20912481;28;20049;-64
2023/05/10 06:47:56;;;;;;;0.52;0.43;;;;;;;19.62;65.51;100515.88;20912025;28;20053;-65
2023/05/10 06:57:57;;;;;;;0.40;0.40;;;;;;;19.62;65.54;100529.38;20911546;28;20052;-64
2023/05/10 07:07:59;;;;;;;0.40;0.30;;;;;;;19.62;65.46;100537.50;20895884;28;20049;-65
2023/05/10 07:18:01;;;;;;;1.05;0.40;;;;;;;19.62;65.49;100548.28;20908716;28;20428;-65
2023/05/10 07:28:03;;;;;;;0.30;0.30;;;;;;;19.61;65.61;100558.22;20909670;28;20501;-64
2023/05/10 07:38:04;;;;;;;0.75;0.45;;;;;;;19.62;65.59;100559.09;20908142;28;20044;-64
2023/05/10 07:48:06;;;;;;;0.30;0.30;;;;;;;19.61;65.58;100565.50;20907538;28;20057;-65
2023/05/10 07:58:07;;;;;;;0.43;0.40;;;;;;;19.61;65.59;100581.69;20907097;28;20406;-64
2023/05/10 08:08:09;;;;;;;0.30;0.30;;;;;;;19.62;65.63;100588.78;20895416;28;20086;-65
2023/05/10 08:18:10;;;;;;;0.40;0.40;;;;;;;19.62;65.94;100594.19;20905439;28;20048;-65
2023/05/10 08:28:12;;;;;;;0.35;0.35;;;;;;;19.62;65.77;100611.22;20904140;28;20045;-65
2023/05/10 08:38:14;;;;;;;0.60;0.40;;;;;;;19.64;65.96;100619.19;20903748;28;20679;-64
2023/05/10 08:48:16;;;;;;;0.30;0.30;;;;;;;19.65;65.71;100626.28;20902688;28;20053;-64
2023/05/10 08:58:19;;;;;;;0.30;0.30;;;;;;;19.66;65.89;100633.38;20896831;28;20106;-65
2023/05/10 09:08:21;;;;;;;0.28;0.28;;;;;;;19.68;65.70;100650.28;20893514;28;20458;-64
2023/05/10 09:18:22;;;;;;;0.45;0.45;;;;;;;19.69;65.54;100670.88;20901241;28;20053;-65
2023/05/10 09:28:26;;;;;;;0.43;0.30;;;;;;;19.71;65.69;100674.28;20900754;28;20073;-64
2023/05/10 09:38:28;;;;;;;0.30;0.30;;;;;;;19.71;65.54;100675.13;20899159;28;20161;-64
2023/05/10 09:48:29;;;;;;;0.43;0.30;;;;;;;19.75;65.52;100680.22;20900437;28;20612;-64
2023/05/10 09:58:31;;;;;;;0.38;0.38;;;;;;;19.75;65.52;100697.28;20885641;28;20132;-64
2023/05/10 10:08:33;;;;;;;0.45;0.30;;;;;;;19.75;65.79;100699.13;20897068;28;20124;-64
2023/05/10 10:18:38;;;;;;;0.30;0.30;;;;;;;19.76;65.78;100719.75;20897745;28;20049;-64
2023/05/10 10:29:01;;;;;;;0.30;0.30;;;;;;;19.75;65.81;100721.59;20896679;28;20045;-64
2023/05/10 10:39:09;;;;;;;0.47;0.47;;;;;;;19.77;65.53;100730.38;20897857;28;20700;-65
2023/05/10 10:49:10;;;;;;;0.30;0.30;;;;;;;19.76;65.86;100731.38;20900350;28;20136;-64
2023/05/10 10:59:12;;;;;;;0.40;0.40;;;;;;;19.77;65.77;100735.78;20900529;28;20538;-64
2023/05/10 11:09:14;;;;;;;0.40;0.40;;;;;;;19.77;65.90;100745.75;20910347;28;20053;-64
2023/05/10 11:19:16;;;;;;;0.50;0.50;;;;;;;19.76;66.05;100746.75;20910036;28;20045;-64
2023/05/10 11:29:18;;;;;;;0.55;0.45;;;;;;;19.75;65.78;100751.28;20909889;28;20059;-64
2023/05/10 11:39:21;;;;;;;0.40;0.40;;;;;;;19.76;66.07;100758.41;20909223;28;20166;-65
2023/05/10 11:49:22;;;;;;;0.50;0.47;;;;;;;19.75;65.98;100772.91;20907387;28;20118;-64
2023/05/10 11:59:25;;;;;;;1.70;0.50;;;;;;;19.72;66.04;100773.22;20893382;28;20064;-64
2023/05/10 12:09:26;;;;;;;0.40;0.40;;;;;;;19.76;65.89;100788.09;20907003;28;20049;-64
2023/05/10 12:19:44;;;;;;;0.40;0.40;;;;;;;19.77;66.00;100800.59;20905962;28;20088;-64
2023/05/10 12:29:46;;;;;;;0.50;0.50;;;;;;;19.75;66.03;100808.00;20904494;28;20098;-64
2023/05/10 12:39:47;;;;;;;0.43;0.40;;;;;;;19.77;65.80;100814.13;20904539;28;20053;-64
2023/05/10 12:49:49;;;;;;;0.40;0.40;;;;;;;19.79;65.82;100813.97;20886288;28;20478;-64
2023/05/10 12:59:50;;;;;;;0.50;0.50;;;;;;;19.78;65.71;100837.41;20893442;28;20049;-64
2023/05/10 13:09:52;;;;;;;0.50;0.50;;;;;;;19.79;65.88;100831.03;20901473;28;20060;-64
2023/05/10 13:19:53;;;;;;;0.50;0.50;;;;;;;19.77;65.91;100846.53;20901855;28;20459;-64
2023/05/10 13:29:56;;;;;;;0.50;0.50;;;;;;;19.73;65.59;100847.84;20900573;28;20052;-64
2023/05/10 13:39:58;;;;;;;0.55;0.50;;;;;;;19.76;65.66;100862.91;20900468;28;20091;-65
2023/05/10 13:50:00;;;;;;;0.52;0.52;;;;;;;19.78;65.48;100866.31;20900863;28;20053;-64
2023/05/10 14:00:02;;;;;;;0.60;0.40;;;;;;;19.77;65.57;100857.34;20886433;28;20111;-64
2023/05/10 14:10:08;;;;;;;0.55;0.50;;;;;;;19.78;65.66;100853.63;20898862;28;20052;-64
2023/05/10 14:20:10;;;;;;;0.80;0.80;;;;;;;19.79;65.64;100857.19;20899097;28;20045;-64
2023/05/10 14:30:12;;;;;;;0.60;0.60;;;;;;;19.79;65.42;100858.03;20896254;28;20053;-64
2023/05/10 14:40:14;;;;;;;0.68;0.65;;;;;;;19.80;65.51;100861.59;20896275;28;20524;-64
2023/05/10 14:50:17;;;;;;;0.80;0.80;;;;;;;19.80;65.66;100854.34;20904946;28;20045;-64
2023/05/10 15:00:36;;;;;;;0.73;0.73;;;;;;;19.80;65.53;100867.00;20904568;28;20049;-64
2023/05/10 15:10:41;;;;;;;0.70;0.70;;;;;;;19.78;65.43;100875.25;20911466;28;20052;-64
2023/05/10 15:20:42;;;;;;;1.17;0.80;;;;;;;19.77;65.21;100872.72;20910934;28;20060;-64
2023/05/10 15:30:44;;;;;;;1.23;1.08;;;;;;;19.77;65.55;100884.34;20909412;28;20041;-64
2023/05/10 15:40:45;;;;;;;1.10;0.95;;;;;;;19.74;65.53;100895.44;20907202;28;20049;-64
2023/05/10 15:50:47;;;;;;;0.70;0.70;;;;;;;19.73;65.30;100898.31;20896703;28;20056;-64
2023/05/10 16:00:49;;;;;;;1.00;1.00;;;;;;;19.76;65.40;100909.66;20907988;28;20045;-64
2023/05/10 16:10:51;;;;;;;0.98;0.90;;;;;;;19.71;65.35;100907.41;20906906;28;20102;-64
2023/05/10 16:20:52;;;;;;;1.10;1.00;;;;;;;19.73;65.47;100914.53;20906538;28;20106;-64
2023/05/10 16:30:54;;;;;;;1.00;0.95;;;;;;;19.53;65.52;100895.66;20902984;28;20076;-64
2023/05/10 16:40:56;;;;;;;0.90;0.90;;;;;;;19.71;65.54;100920.91;20904444;28;20095;-64
2023/05/10 16:51:01;;;;;;;1.57;1.10;;;;;;;19.72;65.57;100929.88;20887554;28;20048;-64
2023/05/10 17:01:03;;;;;;;1.35;1.02;;;;;;;19.71;65.53;100936.25;20902848;28;20130;-64
2023/05/10 17:11:05;;;;;;;1.27;1.02;;;;;;;19.71;65.63;100938.97;20901152;28;20099;-64
2023/05/10 17:21:08;;;;;;;1.30;1.00;;;;;;;19.71;65.57;100949.78;20901921;28;20114;-64
2023/05/10 17:31:09;;;;;;;1.10;1.00;;;;;;;19.69;65.66;100949.94;20901999;28;20049;-64
2023/05/10 17:41:13;;;;;;;1.05;1.00;;;;;;;19.69;65.55;100954.47;20900964;28;20045;-62
2023/05/10 17:51:14;;;;;;;0.90;0.90;;;;;;;19.66;65.63;100960.16;20890602;28;20106;-62
2023/05/10 18:01:16;;;;;;;1.00;1.00;;;;;;;19.68;65.32;100977.06;20909034;28;20045;-62
2023/05/10 18:11:18;;;;;;;0.80;0.80;;;;;;;19.68;65.21;100974.38;20916205;28;20056;-63
2023/05/10 18:21:19;;;;;;;1.00;0.77;;;;;;;19.67;65.29;100983.47;20914068;28;20464;-62
2023/05/10 18:31:21;;;;;;;1.30;1.08;;;;;;;19.66;65.12;100995.28;20915289;28;20048;-63
2023/05/10 18:41:25;;;;;;;1.10;1.00;;;;;;;19.66;65.37;101001.50;20913117;28;20053;-62
2023/05/10 18:51:30;;;;;;;1.05;1.00;;;;;;;19.66;65.19;101011.47;20898241;28;20081;-62
2023/05/10 19:01:31;;;;;;;1.20;1.10;;;;;;;19.65;65.26;101015.19;20912161;28;20436;-63
2023/05/10 19:11:33;;;;;;;1.10;0.93;;;;;;;19.64;65.18;101026.97;20908251;28;20525;-64
2023/05/10 19:21:37;;;;;;;1.42;0.93;;;;;;;19.62;65.24;101020.88;20910894;28;20751;-65
2023/05/10 19:31:40;;;;;;;1.00;0.90;;;;;;;19.61;65.23;101041.59;20909449;28;20052;-64
2023/05/10 19:41:42;;;;;;;0.90;0.80;;;;;;;19.62;65.12;101045.19;20909467;28;20080;-64
2023/05/10 19:51:43;;;;;;;0.88;0.88;;;;;;;19.60;65.30;101057.97;20901371;28;20497;-65
2023/05/10 20:01:45;;;;;;;1.00;0.90;;;;;;;19.59;65.36;101061.66;20907667;28;20053;-65
2023/05/10 20:11:47;;;;;;;0.50;0.50;;;;;;;19.59;65.38;101075.16;20906751;28;20060;-64
2023/05/10 20:21:49;;;;;;;1.02;0.93;;;;;;;19.57;65.32;101072.59;20905531;28;20053;-64
2023/05/10 20:31:51;;;;;;;0.93;0.80;;;;;;;19.58;65.47;101070.75;20903955;28;20045;-64
2023/05/10 20:41:53;;;;;;;1.02;0.90;;;;;;;19.55;65.12;101069.19;20898713;28;20061;-64
2023/05/10 20:51:56;;;;;;;0.95;0.90;;;;;;;19.54;65.33;101081.84;20896662;28;20128;-64
2023/05/10 21:01:58;;;;;;;1.05;0.90;;;;;;;19.50;65.31;101088.53;20902451;28;20083;-65
2023/05/10 21:12:02;;;;;;;0.90;0.90;;;;;;;19.53;65.32;101082.00;20901760;28;20052;-64
2023/05/10 21:22:04;;;;;;;0.98;0.98;;;;;;;19.53;65.27;101082.00;20901332;28;20107;-64
2023/05/10 21:32:05;;;;;;;0.73;0.73;;;;;;;19.51;65.32;101092.06;20900055;28;20052;-65
2023/05/10 21:42:07;;;;;;;1.30;0.95;;;;;;;19.49;65.36;101092.25;20883819;28;20104;-64
2023/05/10 21:52:08;;;;;;;0.90;0.90;;;;;;;19.49;65.13;101097.63;20899972;28;20103;-65
2023/05/10 22:02:10;;;;;;;1.08;0.90;;;;;;;19.48;65.24;101104.03;20899783;28;20521;-64
2023/05/10 22:12:12;;;;;;;1.10;0.85;;;;;;;19.46;65.12;101111.44;20899026;28;20044;-64
2023/05/10 22:22:13;;;;;;;1.10;1.00;;;;;;;19.46;65.31;101111.44;20898589;28;20463;-64
2023/05/10 22:32:15;;;;;;;1.20;1.10;;;;;;;19.45;65.07;101111.56;20896885;28;20098;-64
2023/05/10 22:42:16;;;;;;;0.85;0.85;;;;;;;19.41;65.06;101117.25;20887782;28;20128;-65
2023/05/10 22:52:18;;;;;;;1.15;1.00;;;;;;;19.43;64.75;101119.78;20912703;28;20512;-64
2023/05/10 23:02:19;;;;;;;1.30;1.20;;;;;;;19.43;64.68;101125.19;20911365;28;20045;-64
2023/05/10 23:12:21;;;;;;;0.90;0.90;;;;;;;19.43;64.73;101141.38;20912539;28;20033;-64
2023/05/10 23:22:22;;;;;;;1.20;1.10;;;;;;;19.42;64.72;101139.66;20910632;28;20386;-64
2023/05/10 23:32:24;;;;;;;1.05;0.93;;;;;;;19.42;64.96;101139.66;20909732;28;20041;-64
2023/05/10 23:42:26;;;;;;;1.00;1.00;;;;;;;19.41;64.85;101132.56;20895275;28;20287;-64
2023/05/10 23:52:27;;;;;;;1.00;1.00;;;;;;;19.40;64.75;101120.06;20908286;28;20053;-65
